Time;durP1;ratioP1;P1;durP2;ratioP2;P2;SDS_P1;SDS_P2;PMS_P1;PMS_P2;Temp;Humidity;BMP_temperature;BMP_pressure;BME280_temperature;BME280_humidity;BME280_pressure;Samples;Min_cycle;Max_cycle;Signal;HPM_P1;HPM_P2
2023/08/07 00:02:25;;;;;;;9.55;5.15;;;14.80;99.90;;;;;;5057095;28;20526;-69
2023/08/07 00:04:50;;;;;;;14.30;6.60;;;14.80;99.90;;;;;;5067000;28;20036;-62
2023/08/07 00:07:18;;;;;;;14.32;6.32;;;14.80;99.90;;;;;;5051463;28;20037;-64
2023/08/07 00:09:43;;;;;;;13.80;6.40;;;14.80;99.90;;;;;;5046459;28;20076;-66
2023/08/07 00:12:09;;;;;;;13.10;6.20;;;14.80;99.90;;;;;;5047498;28;20134;-64
2023/08/07 00:14:35;;;;;;;12.55;5.53;;;14.80;99.90;;;;;;5046471;28;20267;-63
2023/08/07 00:17:00;;;;;;;11.82;6.53;;;14.70;99.90;;;;;;5051590;28;20048;-64
2023/08/07 00:19:26;;;;;;;12.20;5.78;;;14.80;99.90;;;;;;5046104;28;20424;-65
2023/08/07 00:21:51;;;;;;;15.05;6.68;;;14.70;99.90;;;;;;5045986;28;20067;-66
2023/08/07 00:24:17;;;;;;;12.80;5.93;;;14.80;99.90;;;;;;5046508;28;20041;-66
2023/08/07 00:26:42;;;;;;;10.23;5.82;;;14.70;99.90;;;;;;5050206;28;20036;-67
2023/08/07 00:29:08;;;;;;;10.60;5.50;;;14.80;99.90;;;;;;5049395;28;20055;-66
2023/08/07 00:31:34;;;;;;;12.25;6.32;;;14.70;99.90;;;;;;5043658;28;20033;-66
2023/08/07 00:33:59;;;;;;;9.82;5.55;;;14.70;99.90;;;;;;5048720;28;20044;-66
2023/08/07 00:36:28;;;;;;;13.32;5.75;;;14.70;99.90;;;;;;5065802;28;20047;-67
2023/08/07 00:38:54;;;;;;;10.88;5.93;;;14.70;99.90;;;;;;5057814;28;20483;-68
2023/08/07 00:41:20;;;;;;;15.25;5.53;;;14.70;99.90;;;;;;5030776;28;20041;-68
2023/08/07 00:43:45;;;;;;;11.98;5.18;;;14.70;99.90;;;;;;5065772;28;20044;-69
2023/08/07 00:46:11;;;;;;;9.77;5.05;;;14.70;99.90;;;;;;5064647;28;20447;-69
2023/08/07 00:48:37;;;;;;;12.85;5.75;;;14.70;99.90;;;;;;5065567;28;20078;-68
2023/08/07 00:51:04;;;;;;;10.40;5.25;;;14.70;99.90;;;;;;5054910;28;20037;-67
2023/08/07 00:53:30;;;;;;;15.40;5.40;;;14.60;99.90;;;;;;5045739;28;20045;-67
2023/08/07 00:55:57;;;;;;;10.23;5.25;;;14.60;99.90;;;;;;5045495;28;20049;-69
2023/08/07 00:58:23;;;;;;;11.20;4.88;;;14.50;99.90;;;;;;5045140;28;20119;-68
2023/08/07 01:00:49;;;;;;;12.70;5.80;;;14.50;99.90;;;;;;5046943;28;20397;-69
2023/08/07 01:03:14;;;;;;;10.07;4.95;;;14.50;99.90;;;;;;5045684;28;20528;-66
2023/08/07 01:05:40;;;;;;;10.93;4.90;;;14.40;99.90;;;;;;5065341;28;20664;-68
2023/08/07 01:08:06;;;;;;;10.85;4.68;;;14.40;99.90;;;;;;5065403;28;20041;-66
2023/08/07 01:11:08;;;;;;;11.73;4.80;;;14.40;99.90;;;;;;5056805;28;20179;-71
2023/08/07 01:13:44;;;;;;;11.60;4.55;;;14.40;99.90;;;;;;5013961;28;20084;-66
2023/08/07 01:16:17;;;;;;;11.70;4.95;;;14.30;99.90;;;;;;5032925;28;20066;-69
2023/08/07 01:18:44;;;;;;;10.35;4.18;;;14.30;99.90;;;;;;5048939;28;20554;-74
2023/08/07 01:21:20;;;;;;;12.60;4.50;;;14.30;99.90;;;;;;5065344;28;20117;-68
2023/08/07 01:23:49;;;;;;;12.00;3.90;;;14.30;99.90;;;;;;5065328;28;20036;-71
2023/08/07 01:26:21;;;;;;;8.18;4.10;;;14.30;99.90;;;;;;5046056;28;20043;-71
2023/08/07 01:28:57;;;;;;;10.45;4.00;;;14.20;99.90;;;;;;5067071;28;20044;-71
2023/08/07 01:31:25;;;;;;;9.80;3.90;;;14.20;99.90;;;;;;5055913;28;20148;-70
2023/08/07 01:33:58;;;;;;;8.32;3.85;;;14.20;99.90;;;;;;5065253;28;20143;-70
2023/08/07 01:36:28;;;;;;;9.43;4.30;;;14.20;99.90;;;;;;5059151;28;20041;-68
2023/08/07 01:38:57;;;;;;;11.48;4.43;;;14.20;99.90;;;;;;5049515;28;20128;-69
2023/08/07 01:41:23;;;;;;;14.38;4.07;;;14.10;99.90;;;;;;5062296;28;20492;-67
2023/08/07 01:43:49;;;;;;;12.70;4.25;;;14.10;99.90;;;;;;5045000;28;20045;-74
2023/08/07 01:46:14;;;;;;;10.05;4.40;;;14.10;99.90;;;;;;5043947;28;20735;-71
2023/08/07 01:48:40;;;;;;;10.15;4.40;;;14.10;99.90;;;;;;5045061;28;20047;-67
2023/08/07 01:51:05;;;;;;;9.50;4.30;;;14.10;99.90;;;;;;5044823;28;20037;-74
2023/08/07 01:53:31;;;;;;;13.05;4.82;;;14.10;99.90;;;;;;5046027;28;20045;-69
2023/08/07 01:55:56;;;;;;;10.30;3.92;;;14.10;99.90;;;;;;5027985;28;20040;-73
2023/08/07 01:58:22;;;;;;;10.40;4.50;;;14.00;99.90;;;;;;5063049;28;20050;-69
2023/08/07 02:00:48;;;;;;;9.90;4.30;;;14.00;99.90;;;;;;5048161;28;20083;-71
2023/08/07 02:03:13;;;;;;;13.68;4.63;;;14.00;99.90;;;;;;5045521;28;20055;-74
2023/08/07 02:05:39;;;;;;;11.93;4.80;;;14.00;99.90;;;;;;5064511;28;20764;-67
2023/08/07 02:08:05;;;;;;;12.73;5.00;;;13.90;99.90;;;;;;5047527;28;20052;-70
2023/08/07 02:10:30;;;;;;;12.52;4.70;;;13.90;99.90;;;;;;5057105;28;20037;-69
2023/08/07 02:12:58;;;;;;;12.68;4.10;;;13.90;99.90;;;;;;5027380;28;20072;-69
2023/08/07 02:15:24;;;;;;;12.48;4.25;;;13.90;99.90;;;;;;5045385;28;20500;-64
2023/08/07 02:17:49;;;;;;;12.25;4.47;;;13.90;99.90;;;;;;5049511;28;20048;-74
2023/08/07 02:20:15;;;;;;;14.20;4.55;;;13.90;99.90;;;;;;5027481;28;20093;-69
2023/08/07 02:22:40;;;;;;;14.93;4.80;;;13.90;99.90;;;;;;5043956;28;20041;-70
2023/08/07 02:25:06;;;;;;;14.27;4.80;;;13.90;99.90;;;;;;5053452;28;20139;-74
2023/08/07 02:27:32;;;;;;;11.07;4.50;;;13.90;99.90;;;;;;5051225;28;20044;-74
2023/08/07 02:29:57;;;;;;;10.77;4.05;;;13.90;99.90;;;;;;5027368;28;20044;-71
2023/08/07 02:32:23;;;;;;;13.02;4.57;;;13.90;99.90;;;;;;5049380;28;20079;-71
2023/08/07 02:34:49;;;;;;;11.77;3.90;;;13.90;99.90;;;;;;5063667;28;20033;-69
2023/08/07 02:37:15;;;;;;;14.18;3.88;;;13.90;99.90;;;;;;5065716;28;20260;-69
2023/08/07 02:39:41;;;;;;;12.98;4.32;;;13.90;99.90;;;;;;5062174;28;20044;-69
2023/08/07 02:42:07;;;;;;;9.70;4.65;;;13.90;99.90;;;;;;5055027;28;20518;-67
2023/08/07 02:44:32;;;;;;;14.50;4.68;;;13.90;99.90;;;;;;5043883;28;20522;-69
2023/08/07 02:46:58;;;;;;;12.73;3.95;;;13.90;99.90;;;;;;5044304;28;20045;-72
2023/08/07 02:49:23;;;;;;;16.17;4.30;;;13.90;99.90;;;;;;5027197;28;20047;-67
2023/08/07 02:51:49;;;;;;;15.48;4.53;;;13.90;99.90;;;;;;5027031;28;20048;-64
2023/08/07 02:54:15;;;;;;;16.92;4.40;;;13.90;99.90;;;;;;5047176;28;20036;-70
2023/08/07 02:56:41;;;;;;;18.60;4.45;;;13.90;99.90;;;;;;5044403;28;20298;-70
2023/08/07 02:59:06;;;;;;;14.90;4.07;;;13.90;99.90;;;;;;5064846;28;20050;-72
2023/08/07 03:01:32;;;;;;;13.70;4.22;;;13.90;99.90;;;;;;5044457;28;20044;-71
2023/08/07 03:03:58;;;;;;;16.48;4.55;;;13.90;99.90;;;;;;5046725;28;20098;-69
2023/08/07 03:06:23;;;;;;;15.35;4.85;;;13.90;99.90;;;;;;5063221;28;20039;-72
2023/08/07 03:08:49;;;;;;;17.77;5.00;;;13.90;99.90;;;;;;5063571;28;20674;-64
2023/08/07 03:11:15;;;;;;;20.33;4.85;;;13.90;99.90;;;;;;5058810;28;20140;-65
2023/08/07 03:13:41;;;;;;;19.05;4.95;;;13.90;99.90;;;;;;5026471;28;20476;-69
2023/08/07 03:16:08;;;;;;;18.73;4.63;;;13.90;99.90;;;;;;5043390;28;20210;-63
2023/08/07 03:18:34;;;;;;;15.98;4.70;;;13.90;99.90;;;;;;5045207;28;20047;-68
2023/08/07 03:20:59;;;;;;;18.13;5.65;;;13.90;99.90;;;;;;5063144;28;20040;-65
2023/08/07 03:23:26;;;;;;;16.98;5.15;;;13.90;99.90;;;;;;5045587;28;20040;-66
2023/08/07 03:26:05;;;;;;;17.23;4.53;;;13.90;99.90;;;;;;5044625;28;20492;-65
2023/08/07 03:28:32;;;;;;;17.48;3.85;;;14.00;99.90;;;;;;5062910;28;20040;-64
2023/08/07 03:30:57;;;;;;;18.38;5.32;;;14.00;99.90;;;;;;5056388;28;20409;-65
2023/08/07 03:33:23;;;;;;;20.10;5.40;;;14.00;99.90;;;;;;5094298;28;20329;-68
2023/08/07 03:35:48;;;;;;;14.60;5.07;;;14.00;99.90;;;;;;5046296;28;20051;-64
2023/08/07 03:38:14;;;;;;;14.73;5.40;;;14.00;99.90;;;;;;5043354;28;20071;-66
2023/08/07 03:40:40;;;;;;;15.93;5.00;;;14.00;99.90;;;;;;5042753;28;20090;-64
2023/08/07 03:43:05;;;;;;;19.10;5.97;;;14.00;99.90;;;;;;5058864;28;20040;-67
2023/08/07 03:45:31;;;;;;;18.40;5.57;;;14.00;99.90;;;;;;5044244;28;20043;-67
2023/08/07 03:47:56;;;;;;;21.55;5.20;;;14.00;99.90;;;;;;5061803;28;20740;-66
2023/08/07 03:50:22;;;;;;;21.60;5.13;;;14.00;99.90;;;;;;5061533;28;20388;-71
2023/08/07 03:52:47;;;;;;;17.25;4.80;;;14.00;99.90;;;;;;5045977;28;20504;-66
2023/08/07 03:55:13;;;;;;;19.63;5.00;;;14.00;99.90;;;;;;5062871;28;20419;-68
2023/08/07 03:57:39;;;;;;;20.15;5.22;;;14.00;99.90;;;;;;5047390;28;20048;-68
2023/08/07 04:00:05;;;;;;;16.35;4.85;;;14.00;99.90;;;;;;5044165;28;20041;-72
2023/08/07 04:02:31;;;;;;;16.02;4.80;;;14.00;99.90;;;;;;5041484;28;20037;-69
2023/08/07 04:04:59;;;;;;;18.83;5.55;;;14.00;99.90;;;;;;5025755;28;20043;-71
2023/08/07 04:07:25;;;;;;;23.80;4.88;;;14.00;99.90;;;;;;5042023;28;20044;-69
2023/08/07 04:09:51;;;;;;;13.32;4.82;;;14.00;99.90;;;;;;5043944;28;20032;-67
2023/08/07 04:12:16;;;;;;;17.02;4.88;;;14.00;99.90;;;;;;5046254;28;20556;-67
2023/08/07 04:14:42;;;;;;;13.40;4.00;;;14.10;99.90;;;;;;5023703;28;20044;-65
2023/08/07 04:17:08;;;;;;;13.55;3.75;;;14.10;99.90;;;;;;5029653;28;20056;-68
2023/08/07 04:19:35;;;;;;;18.42;4.07;;;14.10;99.90;;;;;;5080169;28;20044;-72
2023/08/07 04:22:01;;;;;;;13.02;3.80;;;14.20;99.90;;;;;;5048757;28;20504;-66
2023/08/07 04:24:27;;;;;;;17.85;4.63;;;14.20;99.90;;;;;;5048721;28;20040;-66
2023/08/07 04:26:53;;;;;;;16.70;5.05;;;14.30;99.90;;;;;;5063778;28;20040;-68
2023/08/07 04:29:19;;;;;;;14.98;4.22;;;14.30;99.90;;;;;;5049444;28;20331;-67
2023/08/07 04:31:44;;;;;;;14.75;4.10;;;14.30;99.90;;;;;;5059337;28;20170;-68
2023/08/07 04:34:10;;;;;;;13.38;3.60;;;14.30;99.90;;;;;;5066240;28;20132;-66
2023/08/07 04:36:36;;;;;;;15.98;4.22;;;14.40;99.90;;;;;;5047203;28;20040;-65
2023/08/07 04:39:01;;;;;;;15.45;5.20;;;14.40;99.90;;;;;;5067571;28;20125;-66
2023/08/07 04:41:27;;;;;;;12.40;4.45;;;14.40;99.90;;;;;;5062148;28;20189;-66
2023/08/07 04:43:53;;;;;;;16.23;4.13;;;14.50;99.90;;;;;;5047757;28;20037;-65
2023/08/07 04:46:18;;;;;;;21.45;4.35;;;14.50;99.90;;;;;;5047359;28;20037;-66
2023/08/07 04:48:44;;;;;;;15.80;5.25;;;14.50;99.90;;;;;;5045653;28;20490;-64
2023/08/07 04:51:10;;;;;;;18.98;4.60;;;14.50;99.90;;;;;;5045771;28;20052;-63
2023/08/07 04:53:35;;;;;;;15.02;3.95;;;14.50;99.90;;;;;;5029398;28;20120;-65
2023/08/07 04:56:01;;;;;;;22.63;4.30;;;14.60;99.90;;;;;;5051835;28;20040;-64
2023/08/07 04:58:26;;;;;;;18.10;4.22;;;14.60;99.90;;;;;;5064202;28;20106;-67
2023/08/07 05:00:56;;;;;;;21.85;5.43;;;14.60;99.90;;;;;;5065794;28;20572;-66
2023/08/07 05:03:22;;;;;;;22.70;4.22;;;14.60;99.90;;;;;;5047909;28;20145;-66
2023/08/07 05:05:47;;;;;;;15.52;3.90;;;14.60;99.90;;;;;;5045328;28;20076;-64
2023/08/07 05:08:13;;;;;;;15.27;3.97;;;14.60;99.90;;;;;;5079328;28;20401;-65
2023/08/07 05:10:39;;;;;;;16.75;4.30;;;14.60;99.90;;;;;;5045950;28;20040;-61
2023/08/07 05:13:04;;;;;;;18.88;4.28;;;14.60;99.90;;;;;;5060486;28;20071;-71
2023/08/07 05:15:31;;;;;;;16.48;5.35;;;14.60;99.90;;;;;;5066652;28;20116;-66
2023/08/07 05:17:56;;;;;;;16.40;4.63;;;14.60;99.90;;;;;;5049915;28;20127;-62
2023/08/07 05:20:22;;;;;;;24.88;5.20;;;14.60;99.90;;;;;;5045348;28;20597;-66
2023/08/07 05:22:48;;;;;;;20.80;5.07;;;14.60;99.90;;;;;;5058770;28;20506;-68
2023/08/07 05:25:18;;;;;;;17.48;4.63;;;14.60;99.90;;;;;;5066616;28;20032;-66
2023/08/07 05:27:44;;;;;;;19.95;3.97;;;14.60;99.90;;;;;;5050876;28;20386;-65
2023/08/07 05:30:11;;;;;;;14.93;4.07;;;14.60;99.90;;;;;;5045331;28;20795;-65
2023/08/07 05:32:39;;;;;;;20.27;4.70;;;14.70;99.90;;;;;;5050383;28;20050;-67
2023/08/07 05:35:06;;;;;;;22.33;4.55;;;14.70;99.90;;;;;;5064885;28;20044;-67
2023/08/07 05:37:32;;;;;;;20.02;4.20;;;14.80;99.90;;;;;;5064976;28;20044;-65
2023/08/07 05:39:58;;;;;;;20.60;4.25;;;14.80;99.90;;;;;;5063106;28;20058;-67
2023/08/07 05:42:23;;;;;;;21.08;4.38;;;14.80;99.90;;;;;;5054219;28;20223;-67
2023/08/07 05:44:49;;;;;;;15.23;4.05;;;14.90;99.90;;;;;;5066093;28;20123;-67
2023/08/07 05:47:15;;;;;;;30.45;4.65;;;15.00;99.90;;;;;;5060901;28;20483;-67
2023/08/07 05:49:41;;;;;;;20.90;4.72;;;15.10;99.90;;;;;;5048588;28;20159;-64
2023/08/07 05:52:07;;;;;;;19.25;4.88;;;15.20;99.90;;;;;;5064660;28;20048;-65
2023/08/07 05:54:32;;;;;;;17.60;5.55;;;15.50;99.90;;;;;;5063533;28;20048;-66
2023/08/07 05:56:58;;;;;;;18.52;4.43;;;16.10;99.90;;;;;;5084048;28;20512;-65
2023/08/07 05:59:23;;;;;;;20.15;4.68;;;16.20;99.90;;;;;;5065979;28;20290;-69
2023/08/07 06:01:49;;;;;;;19.88;4.57;;;16.10;99.90;;;;;;5059867;28;20057;-67
2023/08/07 06:04:15;;;;;;;19.50;4.00;;;16.10;99.90;;;;;;5044418;28;20135;-70
2023/08/07 06:06:42;;;;;;;15.45;3.45;;;16.20;99.90;;;;;;5027682;28;20072;-67
2023/08/07 06:09:08;;;;;;;14.95;3.97;;;16.20;99.90;;;;;;5028341;28;20552;-70
2023/08/07 06:11:33;;;;;;;22.55;4.60;;;16.10;99.90;;;;;;5059551;28;20132;-68
2023/08/07 06:13:59;;;;;;;13.90;3.92;;;16.00;99.90;;;;;;5044165;28;20510;-66
2023/08/07 06:16:25;;;;;;;15.27;3.83;;;15.90;99.90;;;;;;5044950;28;20044;-67
2023/08/07 06:18:51;;;;;;;16.63;3.80;;;15.80;99.90;;;;;;5064080;28;20048;-68
2023/08/07 06:21:16;;;;;;;18.38;3.95;;;15.60;99.90;;;;;;5064002;28;20041;-68
2023/08/07 06:23:42;;;;;;;16.70;3.20;;;15.60;99.90;;;;;;5060296;28;20150;-70
2023/08/07 06:26:08;;;;;;;14.60;4.05;;;15.50;99.90;;;;;;5045257;28;20044;-71
2023/08/07 06:28:38;;;;;;;14.07;3.47;;;15.40;99.90;;;;;;5064376;28;20039;-68
2023/08/07 06:31:08;;;;;;;20.48;4.00;;;15.40;99.90;;;;;;5047169;28;20033;-70
2023/08/07 06:33:35;;;;;;;16.00;3.60;;;15.30;99.90;;;;;;5061760;28;20131;-65
2023/08/07 06:36:02;;;;;;;18.55;4.03;;;15.30;99.90;;;;;;5047235;28;20123;-64
2023/08/07 06:38:27;;;;;;;18.13;3.60;;;15.30;99.90;;;;;;5063941;28;20037;-72
2023/08/07 06:40:53;;;;;;;20.33;3.90;;;15.30;99.90;;;;;;5047271;28;20127;-66
2023/08/07 06:43:18;;;;;;;17.00;3.65;;;15.30;99.90;;;;;;5045187;28;20098;-68
2023/08/07 06:45:49;;;;;;;13.63;3.40;;;15.30;99.90;;;;;;5060317;28;20033;-69
2023/08/07 06:48:14;;;;;;;12.93;3.67;;;15.30;99.90;;;;;;5027319;28;20041;-66
2023/08/07 06:50:40;;;;;;;20.17;3.75;;;15.30;99.90;;;;;;5047936;28;20258;-70
2023/08/07 06:53:05;;;;;;;14.10;3.42;;;15.40;99.90;;;;;;5047282;28;20040;-67
2023/08/07 06:55:31;;;;;;;14.80;2.97;;;15.60;99.90;;;;;;5063478;28;20060;-65
2023/08/07 06:57:56;;;;;;;13.95;3.13;;;15.80;99.90;;;;;;5062311;28;20068;-61
2023/08/07 07:00:22;;;;;;;12.85;2.80;;;15.80;99.90;;;;;;5063724;28;20101;-66
2023/08/07 07:02:48;;;;;;;14.80;3.25;;;15.70;99.90;;;;;;5049916;28;20136;-62
2023/08/07 07:05:13;;;;;;;13.32;3.30;;;15.60;99.90;;;;;;5027198;28;20071;-63
2023/08/07 07:07:39;;;;;;;12.20;2.90;;;15.50;99.90;;;;;;5044900;28;20043;-63
2023/08/07 07:10:05;;;;;;;14.93;3.10;;;15.40;99.90;;;;;;5049481;28;20125;-65
2023/08/07 07:12:31;;;;;;;13.15;3.35;;;15.40;99.90;;;;;;5051365;28;20103;-67
2023/08/07 07:14:56;;;;;;;13.20;3.22;;;15.40;99.90;;;;;;5043803;28;20053;-63
2023/08/07 07:17:22;;;;;;;13.93;3.10;;;15.40;99.90;;;;;;5051645;28;20044;-64
2023/08/07 07:19:48;;;;;;;12.45;2.75;;;15.50;99.90;;;;;;5064978;28;20859;-62
2023/08/07 07:22:13;;;;;;;16.25;3.80;;;15.50;99.90;;;;;;5063448;28;20116;-64
2023/08/07 07:24:39;;;;;;;13.07;3.10;;;15.50;99.90;;;;;;5050216;28;20450;-65
2023/08/07 07:27:05;;;;;;;16.20;3.78;;;15.40;99.90;;;;;;5083342;28;20496;-71
2023/08/07 07:29:31;;;;;;;16.88;3.22;;;15.30;99.90;;;;;;5046536;28;20127;-66
2023/08/07 07:31:56;;;;;;;10.23;3.20;;;15.10;99.90;;;;;;5051432;28;20041;-65
2023/08/07 07:34:22;;;;;;;12.73;2.97;;;15.00;99.90;;;;;;5043304;28;20041;-64
2023/08/07 07:36:48;;;;;;;13.75;3.13;;;14.90;99.90;;;;;;5043083;28;20041;-65
2023/08/07 07:39:13;;;;;;;15.32;3.45;;;14.80;99.90;;;;;;5080430;28;20044;-65
2023/08/07 07:41:39;;;;;;;14.88;3.30;;;14.80;99.90;;;;;;5044765;28;20391;-69
2023/08/07 07:44:04;;;;;;;19.48;3.72;;;14.80;99.90;;;;;;5065117;28;20045;-71
2023/08/07 07:46:31;;;;;;;15.27;3.63;;;14.70;99.90;;;;;;5047451;28;20472;-67
2023/08/07 07:48:57;;;;;;;12.98;3.17;;;14.70;99.90;;;;;;5031032;28;20547;-65
2023/08/07 07:51:23;;;;;;;14.15;3.80;;;14.60;99.90;;;;;;5050183;28;20044;-66
2023/08/07 07:53:49;;;;;;;16.80;3.65;;;14.60;99.90;;;;;;5066991;28;20041;-66
2023/08/07 07:56:14;;;;;;;14.48;3.33;;;14.70;99.90;;;;;;5030728;28;20128;-67
2023/08/07 07:58:40;;;;;;;18.17;3.63;;;14.70;99.90;;;;;;5030428;28;20049;-67
2023/08/07 08:01:07;;;;;;;12.57;3.25;;;14.70;99.90;;;;;;5046658;28;20064;-65
2023/08/07 08:03:33;;;;;;;14.32;3.20;;;14.80;99.90;;;;;;5064395;28;20048;-67
2023/08/07 08:05:59;;;;;;;12.45;3.47;;;14.80;99.90;;;;;;5067930;28;20080;-70
2023/08/07 08:08:25;;;;;;;14.52;3.65;;;14.90;99.90;;;;;;5049668;28;20040;-68
2023/08/07 08:10:51;;;;;;;16.38;4.15;;;14.90;99.90;;;;;;5048224;28;20036;-66
2023/08/07 08:13:17;;;;;;;17.25;4.65;;;14.80;99.90;;;;;;5046356;28;20048;-69
2023/08/07 08:15:44;;;;;;;14.23;4.35;;;14.70;99.90;;;;;;5050237;28;20068;-67
2023/08/07 08:18:09;;;;;;;17.75;3.67;;;14.60;99.90;;;;;;5049922;28;20045;-71
2023/08/07 08:20:36;;;;;;;13.85;3.70;;;14.50;99.90;;;;;;5029760;28;20502;-65
2023/08/07 08:23:01;;;;;;;15.40;4.30;;;14.30;99.90;;;;;;5046275;28;20041;-67
2023/08/07 08:25:28;;;;;;;18.48;4.20;;;14.30;99.90;;;;;;5046315;28;20041;-66
2023/08/07 08:27:53;;;;;;;18.73;5.55;;;14.20;99.90;;;;;;5059149;28;20033;-65
2023/08/07 08:30:20;;;;;;;13.60;4.22;;;14.10;99.90;;;;;;5066500;28;20121;-64
2023/08/07 08:32:45;;;;;;;19.70;4.35;;;14.20;99.90;;;;;;5057880;28;20040;-68
2023/08/07 08:35:11;;;;;;;16.42;4.05;;;14.10;99.90;;;;;;5066130;28;20101;-64
2023/08/07 08:37:37;;;;;;;17.25;4.22;;;14.10;99.90;;;;;;5066174;28;20067;-64
2023/08/07 08:40:03;;;;;;;18.30;4.40;;;14.10;99.90;;;;;;5066160;28;20041;-65
2023/08/07 08:42:28;;;;;;;12.65;3.97;;;14.20;99.90;;;;;;5058942;28;20498;-65
2023/08/07 08:44:56;;;;;;;14.07;4.18;;;14.40;99.90;;;;;;5066036;28;20515;-68
2023/08/07 08:47:22;;;;;;;17.05;4.22;;;14.50;99.90;;;;;;5045443;28;20051;-65
2023/08/07 08:50:01;;;;;;;14.25;4.93;;;14.70;99.90;;;;;;5066109;28;20043;-67
2023/08/07 08:52:28;;;;;;;13.52;3.65;;;14.80;99.90;;;;;;5065874;28;20087;-66
2023/08/07 08:54:55;;;;;;;16.95;3.92;;;14.90;99.90;;;;;;5059478;28;20036;-66
2023/08/07 08:57:22;;;;;;;13.80;3.83;;;15.00;99.90;;;;;;5054076;28;20127;-70
2023/08/07 08:59:48;;;;;;;19.35;4.25;;;15.10;99.90;;;;;;5065786;28;20083;-68
2023/08/07 09:02:14;;;;;;;15.98;3.63;;;15.30;99.90;;;;;;5046794;28;20137;-66
2023/08/07 09:04:42;;;;;;;14.50;3.47;;;15.30;99.90;;;;;;5065755;28;20124;-66
2023/08/07 09:07:08;;;;;;;18.63;3.65;;;15.40;99.90;;;;;;5046825;28;20453;-71
2023/08/07 09:09:34;;;;;;;14.13;3.22;;;15.50;99.90;;;;;;5064727;28;20127;-65
2023/08/07 09:12:02;;;;;;;12.15;3.15;;;15.60;99.90;;;;;;5050659;28;20554;-68
2023/08/07 09:14:33;;;;;;;19.20;4.47;;;15.70;99.90;;;;;;5067106;28;20041;-64
2023/08/07 09:17:00;;;;;;;14.95;2.97;;;15.80;99.90;;;;;;5046748;28;20079;-67
2023/08/07 09:19:26;;;;;;;14.82;2.95;;;15.90;99.90;;;;;;5048718;28;20109;-64
2023/08/07 09:21:52;;;;;;;11.48;2.90;;;16.00;99.90;;;;;;5063146;28;20484;-65
2023/08/07 09:24:19;;;;;;;15.23;3.00;;;16.10;99.90;;;;;;5048688;28;20044;-69
2023/08/07 09:26:45;;;;;;;13.82;3.10;;;16.10;99.90;;;;;;5044710;28;20043;-67
2023/08/07 09:29:11;;;;;;;13.20;2.95;;;16.30;99.90;;;;;;5066895;28;20040;-70
2023/08/07 09:31:37;;;;;;;13.80;3.28;;;16.40;99.90;;;;;;5052373;28;20033;-71
2023/08/07 09:34:04;;;;;;;12.23;2.95;;;16.50;99.90;;;;;;5065090;28;20048;-61
2023/08/07 09:36:34;;;;;;;13.82;2.70;;;16.70;99.90;;;;;;5066481;28;20551;-70
2023/08/07 09:39:04;;;;;;;13.40;2.90;;;16.90;99.90;;;;;;5048469;28;20036;-68
2023/08/07 09:41:30;;;;;;;16.95;3.35;;;17.10;99.90;;;;;;5059085;28;20043;-65
2023/08/07 09:44:06;;;;;;;16.27;2.60;;;17.40;99.90;;;;;;5065089;28;20066;-64
2023/08/07 09:46:37;;;;;;;10.48;3.10;;;17.60;99.90;;;;;;5062472;28;20048;-64
2023/08/07 09:49:02;;;;;;;12.25;2.60;;;17.60;99.90;;;;;;5044856;28;20076;-68
2023/08/07 09:51:41;;;;;;;14.48;2.70;;;17.50;99.90;;;;;;5044427;28;20090;-68
2023/08/07 09:54:07;;;;;;;11.30;2.92;;;17.40;99.90;;;;;;5045083;28;20125;-68
2023/08/07 09:56:34;;;;;;;16.92;2.97;;;17.20;99.90;;;;;;5045460;28;20264;-63
2023/08/07 09:59:00;;;;;;;13.75;2.65;;;17.10;99.90;;;;;;5078202;28;20045;-68
2023/08/07 10:01:25;;;;;;;10.77;2.50;;;16.90;99.90;;;;;;5043924;28;20067;-65
2023/08/07 10:03:52;;;;;;;16.73;3.05;;;16.80;99.90;;;;;;5066233;28;20098;-64
2023/08/07 10:06:18;;;;;;;11.48;2.90;;;16.80;99.90;;;;;;5047858;28;20115;-66
2023/08/07 10:08:45;;;;;;;9.50;2.42;;;16.90;99.90;;;;;;5063987;28;20060;-68
2023/08/07 10:11:13;;;;;;;13.40;2.45;;;16.90;99.90;;;;;;5065455;28;20095;-67
2023/08/07 10:13:40;;;;;;;10.38;2.70;;;16.90;99.90;;;;;;5046133;28;20040;-68
2023/08/07 10:16:06;;;;;;;10.10;3.03;;;16.70;99.90;;;;;;5048197;28;20487;-67
2023/08/07 10:18:32;;;;;;;13.98;2.70;;;16.80;99.90;;;;;;5062708;28;20051;-67
2023/08/07 10:20:59;;;;;;;15.48;2.75;;;16.70;99.90;;;;;;5047490;28;20465;-68
2023/08/07 10:23:24;;;;;;;12.55;2.97;;;16.70;99.90;;;;;;5062817;28;20036;-65
2023/08/07 10:25:51;;;;;;;14.27;3.22;;;16.60;99.90;;;;;;5063847;28;20051;-68
2023/08/07 10:28:19;;;;;;;16.35;3.42;;;16.50;99.90;;;;;;5062484;28;20041;-64
2023/08/07 10:30:44;;;;;;;14.95;3.10;;;16.40;99.90;;;;;;5062364;28;20696;-66
2023/08/07 10:33:12;;;;;;;15.40;3.15;;;16.40;99.90;;;;;;5060336;28;20135;-64
2023/08/07 10:35:46;;;;;;;16.75;3.20;;;16.40;99.90;;;;;;5044103;28;20048;-68
2023/08/07 10:38:12;;;;;;;16.55;3.70;;;16.40;99.90;;;;;;5062206;28;20052;-63
2023/08/07 10:40:58;;;;;;;12.70;2.95;;;16.50;99.90;;;;;;5063740;28;20051;-68
2023/08/07 10:43:25;;;;;;;12.80;2.83;;;16.50;99.90;;;;;;5044072;28;20036;-67
2023/08/07 10:45:51;;;;;;;10.55;2.47;;;16.60;99.90;;;;;;5057795;28;20040;-67
2023/08/07 10:48:21;;;;;;;10.45;2.83;;;16.60;99.90;;;;;;5027655;28;20037;-65
2023/08/07 10:51:03;;;;;;;10.18;3.05;;;16.60;99.90;;;;;;5043716;28;20045;-69
2023/08/07 10:53:41;;;;;;;11.52;2.88;;;16.50;99.90;;;;;;5045247;28;20531;-65
2023/08/07 10:56:14;;;;;;;15.90;3.28;;;16.50;99.90;;;;;;5043026;28;20490;-65
2023/08/07 10:58:41;;;;;;;14.18;2.78;;;16.50;99.90;;;;;;5040504;28;20042;-65
2023/08/07 11:01:34;;;;;;;16.40;3.25;;;16.50;99.90;;;;;;5057104;28;20052;-67
2023/08/07 11:04:05;;;;;;;13.68;2.47;;;16.50;99.90;;;;;;5025072;28;20057;-65
2023/08/07 11:06:34;;;;;;;12.13;2.55;;;16.50;99.90;;;;;;5023782;28;20034;-64
2023/08/07 11:09:00;;;;;;;12.90;2.45;;;16.40;99.90;;;;;;5044431;28;20044;-66
2023/08/07 11:11:30;;;;;;;9.02;2.38;;;16.50;99.90;;;;;;5061168;28;20444;-70
2023/08/07 11:13:55;;;;;;;10.10;2.00;;;16.60;99.90;;;;;;5026861;28;20045;-68
2023/08/07 11:16:21;;;;;;;11.45;2.03;;;16.80;99.90;;;;;;5044781;28;20051;-66
2023/08/07 11:18:48;;;;;;;9.52;2.50;;;17.00;99.90;;;;;;5061905;28;20106;-68
2023/08/07 11:21:14;;;;;;;12.45;2.75;;;17.00;99.90;;;;;;5047829;28;20489;-61
2023/08/07 11:23:41;;;;;;;7.85;1.95;;;17.00;99.90;;;;;;5049009;28;20207;-67
2023/08/07 11:26:08;;;;;;;13.73;2.00;;;17.00;99.90;;;;;;5047447;28;20147;-66
2023/08/07 11:28:33;;;;;;;11.40;2.20;;;16.90;99.90;;;;;;5065482;28;20209;-68
2023/08/07 11:31:00;;;;;;;13.23;2.67;;;16.90;99.90;;;;;;5063664;28;20033;-63
2023/08/07 11:33:27;;;;;;;14.60;3.28;;;16.80;99.90;;;;;;5080160;28;20125;-61
2023/08/07 11:35:54;;;;;;;11.30;2.72;;;16.80;99.90;;;;;;5068891;28;20040;-71
2023/08/07 11:38:37;;;;;;;14.95;3.05;;;16.80;99.90;;;;;;5050819;28;20048;-65
2023/08/07 11:41:05;;;;;;;12.68;2.80;;;16.60;99.90;;;;;;5064295;28;20075;-64
2023/08/07 11:43:32;;;;;;;11.93;2.15;;;16.50;99.90;;;;;;5064461;28;20049;-68
2023/08/07 11:46:01;;;;;;;11.27;3.13;;;16.50;99.90;;;;;;5067270;28;20119;-65
2023/08/07 11:48:28;;;;;;;10.60;2.25;;;16.40;99.90;;;;;;5048588;28;20044;-66
2023/08/07 11:50:54;;;;;;;7.32;2.30;;;16.40;99.90;;;;;;5065541;28;20044;-66
2023/08/07 11:53:21;;;;;;;9.98;2.70;;;16.40;99.90;;;;;;5068929;28;20480;-67
2023/08/07 11:55:51;;;;;;;13.80;3.05;;;16.30;99.90;;;;;;5068199;28;20320;-67
2023/08/07 11:58:17;;;;;;;11.38;2.20;;;16.20;99.90;;;;;;5048352;28;20050;-64
2023/08/07 12:00:45;;;;;;;7.63;2.00;;;16.00;99.90;;;;;;5062523;28;20123;-66
2023/08/07 12:03:29;;;;;;;7.70;2.15;;;15.80;99.90;;;;;;5046017;28;20075;-64
2023/08/07 12:05:56;;;;;;;13.93;2.00;;;15.70;99.90;;;;;;5046799;28;20132;-66
2023/08/07 12:08:23;;;;;;;10.35;2.33;;;15.60;99.90;;;;;;5068455;28;20052;-65
2023/08/07 12:10:51;;;;;;;6.35;2.10;;;15.60;99.90;;;;;;5066648;28;20204;-67
2023/08/07 12:13:19;;;;;;;10.07;2.00;;;15.50;99.90;;;;;;5049689;28;20041;-64
2023/08/07 12:15:45;;;;;;;8.00;2.10;;;15.30;99.90;;;;;;5047090;28;20076;-67
2023/08/07 12:18:12;;;;;;;10.52;2.70;;;15.20;99.90;;;;;;5047665;28;20137;-68
2023/08/07 12:20:38;;;;;;;11.52;2.38;;;15.10;99.90;;;;;;5068103;28;20048;-64
2023/08/07 12:23:10;;;;;;;9.13;3.00;;;15.00;99.90;;;;;;5066797;28;20421;-69
2023/08/07 12:25:36;;;;;;;11.20;2.65;;;14.90;99.90;;;;;;5051817;28;20037;-64
2023/08/07 12:28:02;;;;;;;9.18;2.47;;;14.90;99.90;;;;;;5043100;28;20059;-66
2023/08/07 12:30:30;;;;;;;9.65;2.22;;;14.80;99.90;;;;;;5066148;28;20543;-66
2023/08/07 12:32:55;;;;;;;11.23;2.10;;;14.60;99.90;;;;;;5026177;28;20121;-70
2023/08/07 12:35:21;;;;;;;9.32;1.90;;;14.40;99.90;;;;;;5026479;28;20179;-65
2023/08/07 12:37:47;;;;;;;7.00;1.92;;;14.20;99.90;;;;;;5057606;28;20099;-68